Falls Rough, Kentucky
Current Conditions -  °F | °C
As of 3:56 PM on Tuesday 25 Nov 2014 (Local Time) from KOWB Reporting Station
Clear Clear  
Wind Chill: 34°   Ceiling: Unl
Heat Index: 40°   Visibility: 10mi
Dew Point: 29°   Wind: 8mph
Humidity: 65%   Direction: 290°WNW
Pressure: 30.17"   Gusts: NA
Location:  37.6217°N, 86.5365°W
Report Text: KOWB 252156Z 29007KT 10SM CLR 04/M02 A3017 RMK AO2 T00441016 SLP217
Loading
Personal Weather Stations






























Interactive Weather Map New forecast layout! Learn more

10-Day Weather Forecast

Advertisements
Track Severe Weather on mobile